Latest Coastal Weather Observations for Cape Leeuwin

IDW60701

Issued at 1:33 am WST Thursday 3 September 2026 (issued every 10 minutes, with the page automatically refreshed every 10 minutes)

About coastal observations | Map of coastal stations | Coastal observations for WA | Marine services | Other Formats
Station Details ID: 009518 Name: CAPE LEEUWIN Lat: -34.37 Lon: 115.14 Height: 13.0 m
Data from the previous 72 hours. | See also: Recent months at Cape Leeuwin
Date/Time
WST
Wind Sea
Height
m
Swell Vis
km
Cloud Weather Temp
°C
Press
MSL
hPa
Rain since
9am
mm
Dir  Spd
kts
Gust
kts
Height
m
Period
s
Dir
03/01:30am NE 8 11 - - - - - - - 13.0 1020.0 0.8
03/01:00am NE 9 12 - - - - - - - 13.3 1020.1 0.8
03/12:30am ESE 6 8 - - - - - - - 14.3 1020.2 0.8
03/12:00am SE 6 8 - - - - - - - 14.0 1020.5 0.8
 
Date/Time
WST
Wind Sea
Height
m
Swell Vis
km
Cloud Weather Temp
°C
Press
MSL
hPa
Rain since
9am
mm
Dir  Spd
kts
Gust
kts
Height
m
Period
s
Dir
02/11:30pm SSE 7 9 - - - - - - - 14.0 1020.9 0.8
02/11:00pm SSE 9 12 - - - - - - - 14.0 1021.1 0.8
02/10:30pm SSE 10 13 - - - - - - - 14.2 1021.4 0.8
02/10:00pm S 11 14 - - - - - - - 14.1 1021.6 0.8
02/09:30pm SE 6 9 - - - - - - - 13.7 1021.7 0.8
02/09:00pm S 11 15 - - - - - - Recent precip. 13.6 1021.7 0.8
02/08:30pm S 11 14 - - - - - - - 13.8 1021.8 0.8
02/08:00pm S 9 13 - - - - - - - 14.5 1021.6 0.6
02/07:30pm S 9 12 - - - - - - - 14.5 1021.4 0.6
02/07:00pm S 10 11 - - - - - - - 14.1 1021.2 0.6
02/06:30pm SSW 9 12 - - - - - - - 14.5 1020.9 0.6
02/06:00pm SW 10 14 - - - - - - - 14.6 1020.7 0.4
02/05:30pm SSW 10 12 - - - - - - - 14.5 1020.4 0.4
02/05:00pm S 9 11 - - - - - - - 15.3 1020.2 0.4
02/04:30pm SW 10 13 - - - - - - - 16.6 1020.2 0.0
02/04:00pm WSW 11 14 - - - - - - - 17.7 1020.0 0.0
02/03:30pm WSW 12 15 - - - - - - - 17.3 1020.0 0.0
02/03:00pm WSW 13 16 - - - - - - - 17.9 1020.0 0.0
02/02:30pm WSW 14 16 - - - - - - - 17.1 1020.0 0.0
02/02:00pm WSW 15 17 - - - - - - - 17.3 1020.0 0.0
02/01:30pm W 13 16 - - - - - - - 16.7 1020.1 0.0
02/01:00pm WSW 15 17 - - - - - - - 17.8 1020.5 0.0
02/12:30pm WSW 18 21 - - - - - - - 16.8 1020.7 0.0
02/12:00pm WSW 17 21 - - - - - - - 17.9 1020.8 0.0
02/11:30am WSW 17 19 - - - - - - - 17.2 1020.9 0.0
02/11:00am WSW 19 22 - - - - - - - 16.8 1020.8 0.0
02/10:30am WSW 21 26 - - - - - - - 16.9 1020.8 0.0
02/10:00am WSW 21 25 - - - - - - - 16.2 1020.8 0.0
02/09:30am W 20 23 - - - - - - - 15.8 1020.9 0.0
02/09:00am W 22 26 - - - - - - - 15.6 1020.7 1.8
02/08:30am W 24 32 - - - - - - - 15.4 1020.3 1.8
02/08:00am W 23 26 - - - - - - - 15.7 1020.1 1.8
02/07:30am W 21 24 - - - - - - - 15.7 1019.9 1.6
02/07:00am W 19 23 - - - - - - - 15.2 1019.7 1.6
02/06:30am W 23 28 - - - - - - - 14.8 1019.6 1.6
02/06:00am W 23 28 - - - - - - Rain 14.6 1019.4 1.6
02/05:30am WNW 22 27 - - - - - - - 14.2 1019.6 1.2
02/05:00am WNW 23 28 - - - - - - - 14.1 1019.5 0.8
02/04:50am W 24 34 - - - - - - - 14.3 1019.6 0.6
02/04:30am WNW 22 26 - - - - - - - 14.7 1019.4 0.2
02/04:00am W 22 26 - - - - - - - 14.8 1019.5 0.2
02/03:30am W 27 33 - - - - - - - 14.3 1019.9 0.2
02/03:20am W 23 33 - - - - - - - 15.1 1019.8 0.0
02/03:00am WNW 24 30 - - - - - - - 14.8 1019.9 0.0
02/02:31am WNW 24 29 - - - - - - - 14.9 1020.3 0.0
02/02:30am WNW 25 29 - - - - - - - 14.7 1020.3 0.0
02/02:20am WNW 21 31 - - - - - - - 15.5 1020.2 0.0
02/02:00am WNW 23 28 - - - - - - - 14.4 1020.6 0.0
02/01:30am W 23 29 - - - - - - - 15.1 1020.6 0.0
02/01:28am WNW 22 29 - - - - - - - 15.0 1020.5 0.0
02/01:00am WNW 22 26 - - - - - - - 14.9 1020.9 0.0
02/12:30am W 21 24 - - - - - - - 15.6 1020.8 0.0
02/12:00am WNW 20 24 - - - - - - - 15.5 1021.1 0.0
 
Date/Time
WST
Wind Sea
Height
m
Swell Vis
km
Cloud Weather Temp
°C
Press
MSL
hPa
Rain since
9am
mm
Dir  Spd
kts
Gust
kts
Height
m
Period
s
Dir
01/11:30pm WNW 21 25 - - - - - - - 15.5 1021.4 0.0
01/11:00pm WNW 18 24 - - - - - - - 15.4 1021.7 0.0
01/10:30pm W 23 30 - - - - - - - 15.2 1021.9 0.0
01/10:00pm WNW 19 23 - - - - - - - 15.3 1022.2 0.0
01/09:30pm WNW 16 20 - - - - - - - 15.4 1022.4 0.0
01/09:00pm W 20 23 - - - - - - - 15.3 1022.6 0.0
01/08:30pm WNW 16 19 - - - - - - - 15.2 1022.6 0.0
01/08:00pm WNW 18 21 - - - - - - - 15.1 1022.7 0.0
01/07:30pm WNW 17 22 - - - - - - - 14.9 1022.9 0.0
01/07:00pm WNW 17 22 - - - - - - - 14.9 1022.8 0.0
01/06:30pm W 15 20 - - - - - - - 15.0 1022.9 0.0
01/06:00pm WNW 17 21 - - - - - - - 14.7 1022.9 0.0
01/05:30pm W 17 21 - - - - - - - 15.0 1022.8 0.0
01/05:00pm WNW 15 19 - - - - - - - 15.0 1022.9 0.0
01/04:30pm W 15 21 - - - - - - - 15.3 1022.9 0.0
01/04:00pm W 15 20 - - - - - - - 15.1 1022.9 0.0
01/03:30pm W 16 21 - - - - - - - 15.4 1023.0 0.0
01/03:00pm W 17 21 - - - - - - - 15.6 1023.0 0.0
01/02:30pm W 18 21 - - - - - - - 15.5 1023.0 0.0
01/02:00pm W 17 19 - - - - - - - 15.6 1023.2 0.0
01/01:30pm W 15 19 - - - - - - - 15.5 1023.7 0.0
01/01:00pm W 16 22 - - - - - - - 16.0 1023.9 0.0
01/12:30pm W 17 19 - - - - - - - 15.9 1023.9 0.0
01/12:00pm W 13 18 - - - - - - - 15.9 1024.1 0.0
01/11:30am WNW 13 17 - - - - - - - 16.2 1024.2 0.0
01/11:00am W 14 16 - - - - - - - 15.9 1024.4 0.0
01/10:30am W 17 21 - - - - - - - 15.5 1024.4 0.0
01/10:00am W 16 19 - - - - - - - 15.2 1024.4 0.0
01/09:30am W 12 15 - - - - - - - 15.0 1024.4 0.0
01/09:00am W 13 19 - - - - - - - 15.4 1024.4 6.8
01/08:30am W 15 19 - - - - - - - 14.7 1024.4 6.8
01/08:00am W 11 15 - - - - - - - 14.5 1024.3 6.8
01/07:30am W 11 15 - - - - - - - 14.4 1024.0 6.8
01/07:00am W 14 17 - - - - - - - 14.2 1023.8 6.8
01/06:30am W 12 15 - - - - - - - 14.1 1023.4 6.8
01/06:00am WSW 13 20 - - - - - - - 14.1 1023.3 6.8
01/05:30am WSW 15 18 - - - - - - - 13.9 1023.2 6.8
01/05:00am WSW 15 19 - - - - - - - 13.8 1023.0 6.8
01/04:30am WSW 14 18 - - - - - - - 14.0 1022.7 6.8
01/04:00am WSW 13 16 - - - - - - - 13.6 1022.7 6.8
01/03:30am WNW 13 17 - - - - - - - 13.9 1022.5 6.8
01/03:13am W 19 26 - - - - - - - 13.5 1022.6 6.8
01/03:03am WSW 15 25 - - - - - - - 13.9 1022.6 6.8
01/03:00am WSW 13 16 - - - - - - - 14.0 1022.7 6.8
01/02:30am WSW 13 17 - - - - - - - 14.1 1022.7 6.8
01/02:00am SW 12 16 - - - - - - - 13.9 1022.8 6.8
01/01:30am SW 12 15 - - - - - - - 13.9 1022.8 6.8
01/01:08am SW 13 19 - - - - - - - 13.7 1022.9 6.8
01/01:00am SW 16 19 - - - - - - - 13.9 1022.8 6.8
01/12:58am SW 15 19 - - - - - - - 14.0 1022.9 6.8
01/12:30am S 5 7 - - - - - - - 13.5 1022.8 6.8
01/12:00am SSW 12 16 - - - - - - - 13.6 1022.9 6.8
 
Date/Time
WST
Wind Sea
Height
m
Swell Vis
km
Cloud Weather Temp
°C
Press
MSL
hPa
Rain since
9am
mm
Dir  Spd
kts
Gust
kts
Height
m
Period
s
Dir
31/11:30pm SSW 13 18 - - - - - - - 13.5 1023.0 6.8
31/11:00pm SW 15 19 - - - - - - - 13.8 1022.9 6.8
31/10:30pm SW 17 20 - - - - - - - 13.8 1022.9 6.8
31/10:00pm SW 16 22 - - - - - - - 13.8 1022.9 6.8
31/09:30pm SW 17 24 - - - - - - - 14.0 1022.7 6.8
31/09:00pm SW 20 25 - - - - - - - 13.9 1022.6 6.8
31/08:30pm SW 16 21 - - - - - - - 14.1 1022.4 6.8
31/08:00pm SW 15 19 - - - - - - - 14.3 1021.9 6.8
31/07:30pm SW 15 18 - - - - - - - 14.1 1021.5 6.6
31/07:00pm SW 15 22 - - - - - - - 13.8 1021.2 6.6
31/06:30pm SW 16 21 - - - - - - - 13.7 1020.7 6.6
31/06:00pm WSW 18 25 - - - - - - - 13.5 1020.3 6.6
31/05:30pm SW 19 25 - - - - - - - 12.7 1020.1 6.6
31/05:00pm WSW 21 25 - - - - - - - 13.3 1019.5 6.6
31/04:30pm SW 28 34 - - - - - - - 12.1 1019.2 6.6
31/04:00pm SW 24 30 - - - - - - - 13.6 1018.5 5.4
31/03:30pm SW 24 30 - - - - - - - 13.8 1018.2 4.8
31/03:00pm SW 24 28 - - - - - - Rain 14.6 1017.5 3.6
31/02:30pm SW 23 28 - - - - - - - 15.0 1017.1 3.0
31/02:00pm WSW 24 29 - - - - - - - 15.1 1016.7 2.6
31/01:45pm WSW 24 27 - - - - - - - 15.6 1016.5 2.2
31/01:30pm W 28 32 - - - - - - - 16.5 1016.1 0.4
31/01:02pm WNW 23 29 - - - - - - - 18.1 1015.9 0.0
31/01:00pm WNW 23 29 - - - - - - - 17.7 1015.9 0.0
31/12:43pm WNW 26 37 - - - - - - - 17.9 1015.7 0.0
31/12:30pm WNW 27 32 - - - - - - - 18.8 1015.9 0.0
31/12:00pm NW 24 28 - - - - - - - 19.4 1016.0 0.0
31/11:30am NW 21 24 - - - - - - - 18.6 1016.3 0.0
31/11:00am NW 22 26 - - - - - - - 18.7 1016.3 0.0
31/10:30am NW 24 29 - - - - - - - 19.2 1016.3 0.0
31/10:00am WNW 25 30 - - - - - - - 18.9 1016.2 0.0
31/09:30am WNW 23 27 - - - - - - - 18.4 1016.2 0.0
31/09:00am WNW 22 28 - - - - - - - 17.9 1016.2 0.2
31/08:30am WNW 22 27 - - - - - - - 17.7 1016.3 0.2
31/08:00am WNW 22 27 - - - - - - - 17.5 1016.4 0.2
31/07:30am WNW 23 28 - - - - - - - 17.0 1016.2 0.2
31/07:00am WNW 20 27 - - - - - - - 16.9 1015.8 0.2
31/06:30am NW 18 21 - - - - - - - 17.8 1015.7 0.0
31/06:00am NW 17 19 - - - - - - - 17.8 1015.8 0.0
31/05:30am NW 15 19 - - - - - - - 17.6 1015.9 0.0
31/05:00am NW 15 17 - - - - - - - 17.7 1015.8 0.0
31/04:30am WNW 16 19 - - - - - - - 17.6 1015.9 0.0
31/04:00am WNW 16 19 - - - - - - - 17.6 1016.0 0.0
31/03:30am NW 15 17 - - - - - - - 17.7 1016.2 0.0
31/03:00am WNW 17 19 - - - - - - - 17.7 1016.5 0.0
31/02:30am WNW 15 18 - - - - - - - 17.7 1016.7 0.0
31/02:00am WNW 15 17 - - - - - - - 17.6 1016.7 0.0

Other formats

Comma delimited format used in spreadsheet applications
http://www.bom.gov.au/fwo/IDW60701/IDW60701.94601.axf

JavaScript Object Notation format (JSON) in row-major order
http://www.bom.gov.au/fwo/IDW60701/IDW60701.94601.json

Data quality

Most of these data are generated automatically and are frequently updated. Quality checks on data are not normally performed. It is possible for incorrect values to appear. Refer to information at About Latest Weather Observations and please check the disclaimer before using these data.